Time;durP1;ratioP1;P1;durP2;ratioP2;P2;SDS_P1;SDS_P2;PMS_P1;PMS_P2;Temp;Humidity;BMP_temperature;BMP_pressure;BME280_temperature;BME280_humidity;BME280_pressure;Samples;Min_cycle;Max_cycle;Signal;HPM_P1;HPM_P2
2023/12/07 00:01:26;;;;;;;;;;;;;;;;;;4148029;28;19945;-58
2023/12/07 00:03:27;;;;;;;;;;;;;;;;;;4149678;28;19928;-58
2023/12/07 00:05:29;;;;;;;;;;;;;;;;;;4147621;28;19956;-58
2023/12/07 00:07:31;;;;;;;;;;;;;;;;;;4164185;28;19921;-58
2023/12/07 00:09:32;;;;;;;;;;;;;;;;;;4151292;28;19921;-58
2023/12/07 00:11:33;;;;;;;;;;;;;;;;;;4148489;28;19979;-58
2023/12/07 00:13:35;;;;;;;;;;;;;;;;;;4148441;28;20428;-58
2023/12/07 00:15:36;;;;;;;;;;;;;;;;;;4148083;28;19921;-58
2023/12/07 00:17:38;;;;;;;;;;;;;;;;;;4148577;28;20267;-58
2023/12/07 00:19:39;;;;;;;;;;;;;;;;;;4148516;28;19926;-58
2023/12/07 00:21:41;;;;;;;;;;;;;;;;;;4148490;28;20383;-58
2023/12/07 00:23:43;;;;;;;;;;;;;;;;;;4148422;28;19944;-58
2023/12/07 00:25:45;;;;;;;;;;;;;;;;;;4148226;28;19936;-58
2023/12/07 00:27:47;;;;;;;;;;;;;;;;;;4148518;28;19921;-58
2023/12/07 00:29:48;;;;;;;;;;;;;;;;;;4148120;28;19964;-58
2023/12/07 00:31:51;;;;;;;;;;;;;;;;;;4148451;28;20332;-58
2023/12/07 00:33:53;;;;;;;;;;;;;;;;;;4135136;28;20004;-58
2023/12/07 00:35:55;;;;;;;;;;;;;;;;;;4132152;28;19929;-58
2023/12/07 00:37:56;;;;;;;;;;;;;;;;;;4132210;28;19984;-58
2023/12/07 00:39:59;;;;;;;;;;;;;;;;;;4132214;28;19929;-58
2023/12/07 00:42:00;;;;;;;;;;;;;;;;;;4131928;28;19921;-58
2023/12/07 00:44:02;;;;;;;;;;;;;;;;;;4131849;28;19921;-58
2023/12/07 00:46:03;;;;;;;;;;;;;;;;;;4132025;28;19979;-58
2023/12/07 00:48:05;;;;;;;;;;;;;;;;;;4131851;28;19983;-58
2023/12/07 00:50:06;;;;;;;;;;;;;;;;;;4132029;28;20367;-56
2023/12/07 00:52:08;;;;;;;;;;;;;;;;;;4132125;28;19923;-58
2023/12/07 00:54:09;;;;;;;;;;;;;;;;;;4134373;28;19921;-58
2023/12/07 00:56:11;;;;;;;;;;;;;;;;;;4164529;28;19921;-58
2023/12/07 00:58:13;;;;;;;;;;;;;;;;;;4159508;28;19921;-58
2023/12/07 01:00:15;;;;;;;;;;;;;;;;;;4147815;28;19959;-58
2023/12/07 01:02:16;;;;;;;;;;;;;;;;;;4148103;28;20373;-58
2023/12/07 01:04:18;;;;;;;;;;;;;;;;;;4155775;28;19955;-58
2023/12/07 01:06:21;;;;;;;;;;;;;;;;;;4152127;28;19928;-58
2023/12/07 01:08:22;;;;;;;;;;;;;;;;;;4139567;28;20365;-58
2023/12/07 01:10:24;;;;;;;;;;;;;;;;;;4164247;28;19921;-58
2023/12/07 01:12:25;;;;;;;;;;;;;;;;;;4164226;28;20440;-58
2023/12/07 01:14:27;;;;;;;;;;;;;;;;;;4164423;28;19975;-58
2023/12/07 01:16:28;;;;;;;;;;;;;;;;;;4161667;28;19921;-58
2023/12/07 01:18:30;;;;;;;;;;;;;;;;;;4130430;28;20004;-58
2023/12/07 01:20:32;;;;;;;;;;;;;;;;;;4148030;28;20357;-58
2023/12/07 01:22:33;;;;;;;;;;;;;;;;;;4148145;28;20432;-58
2023/12/07 01:24:35;;;;;;;;;;;;;;;;;;4148022;28;19932;-58
2023/12/07 01:26:36;;;;;;;;;;;;;;;;;;4148702;28;20416;-58
2023/12/07 01:28:38;;;;;;;;;;;;;;;;;;4150695;28;19922;-58
2023/12/07 01:30:40;;;;;;;;;;;;;;;;;;4150727;28;19921;-58
2023/12/07 01:32:41;;;;;;;;;;;;;;;;;;4151019;28;20004;-58
2023/12/07 01:34:43;;;;;;;;;;;;;;;;;;4150932;28;19967;-58
2023/12/07 01:36:45;;;;;;;;;;;;;;;;;;4150905;28;19922;-58
2023/12/07 01:38:47;;;;;;;;;;;;;;;;;;4150590;28;19921;-56
2023/12/07 01:40:48;;;;;;;;;;;;;;;;;;4150510;28;19921;-58
2023/12/07 01:42:50;;;;;;;;;;;;;;;;;;4150797;28;20354;-57
2023/12/07 01:44:52;;;;;;;;;;;;;;;;;;4150552;28;19921;-57
2023/12/07 01:46:53;;;;;;;;;;;;;;;;;;4150913;28;20282;-58
2023/12/07 01:48:55;;;;;;;;;;;;;;;;;;4150613;28;19959;-58
2023/12/07 01:50:56;;;;;;;;;;;;;;;;;;4150558;28;19960;-58
2023/12/07 01:52:58;;;;;;;;;;;;;;;;;;4150683;28;19944;-58
2023/12/07 01:54:59;;;;;;;;;;;;;;;;;;4157899;28;19944;-58
2023/12/07 01:57:01;;;;;;;;;;;;;;;;;;4150624;28;19921;-58
2023/12/07 01:59:03;;;;;;;;;;;;;;;;;;4150630;28;19921;-57
2023/12/07 02:01:05;;;;;;;;;;;;;;;;;;4150356;28;19928;-58
2023/12/07 02:03:07;;;;;;;;;;;;;;;;;;4150239;28;19921;-57
2023/12/07 02:05:09;;;;;;;;;;;;;;;;;;4165590;28;19928;-57
2023/12/07 02:07:10;;;;;;;;;;;;;;;;;;4166787;28;19974;-57
2023/12/07 02:09:12;;;;;;;;;;;;;;;;;;4166458;28;19927;-57
2023/12/07 02:11:13;;;;;;;;;;;;;;;;;;4166654;28;19971;-57
2023/12/07 02:13:15;;;;;;;;;;;;;;;;;;4159724;28;19932;-58
2023/12/07 02:15:17;;;;;;;;;;;;;;;;;;4150277;28;20361;-58
2023/12/07 02:17:18;;;;;;;;;;;;;;;;;;4150197;28;19995;-58
2023/12/07 02:19:20;;;;;;;;;;;;;;;;;;4150206;28;19936;-58
2023/12/07 02:21:21;;;;;;;;;;;;;;;;;;4149945;28;20012;-58
2023/12/07 02:23:23;;;;;;;;;;;;;;;;;;4149692;28;20439;-58
2023/12/07 02:25:39;;;;;;;;;;;;;;;;;;4149836;28;19925;-58
2023/12/07 02:27:41;;;;;;;;;;;;;;;;;;4149313;28;19976;-58
2023/12/07 02:29:42;;;;;;;;;;;;;;;;;;4149934;28;19972;-58
2023/12/07 02:31:44;;;;;;;;;;;;;;;;;;4149731;28;19933;-57
2023/12/07 02:33:45;;;;;;;;;;;;;;;;;;4150000;28;19937;-58
2023/12/07 02:35:47;;;;;;;;;;;;;;;;;;4149676;28;19947;-57
2023/12/07 02:37:48;;;;;;;;;;;;;;;;;;4149356;28;20348;-58
2023/12/07 02:39:50;;;;;;;;;;;;;;;;;;4149548;28;19921;-58
2023/12/07 02:41:51;;;;;;;;;;;;;;;;;;4132197;28;19928;-57
2023/12/07 02:43:53;;;;;;;;;;;;;;;;;;4149644;28;19921;-58
2023/12/07 02:45:54;;;;;;;;;;;;;;;;;;4149762;28;19925;-57
2023/12/07 02:47:56;;;;;;;;;;;;;;;;;;4149624;28;19925;-58
2023/12/07 02:49:57;;;;;;;;;;;;;;;;;;4149400;28;19928;-57
2023/12/07 02:51:59;;;;;;;;;;;;;;;;;;4149570;28;19922;-57
2023/12/07 02:54:00;;;;;;;;;;;;;;;;;;4158270;28;20380;-57
2023/12/07 02:56:02;;;;;;;;;;;;;;;;;;4148153;28;20012;-57
2023/12/07 02:58:03;;;;;;;;;;;;;;;;;;4148463;28;20321;-57
2023/12/07 03:00:08;;;;;;;;;;;;;;;;;;4165849;28;19975;-58
2023/12/07 03:02:09;;;;;;;;;;;;;;;;;;4165603;28;20393;-57
2023/12/07 03:04:11;;;;;;;;;;;;;;;;;;4158318;28;20352;-57
2023/12/07 03:06:13;;;;;;;;;;;;;;;;;;4149436;28;20012;-58
2023/12/07 03:08:14;;;;;;;;;;;;;;;;;;4151916;28;20370;-58
2023/12/07 03:10:16;;;;;;;;;;;;;;;;;;4152226;28;19925;-58
2023/12/07 03:12:17;;;;;;;;;;;;;;;;;;4149349;28;19922;-57
2023/12/07 03:14:19;;;;;;;;;;;;;;;;;;4149127;28;20503;-58
2023/12/07 03:16:21;;;;;;;;;;;;;;;;;;4149314;28;19952;-56
2023/12/07 03:18:22;;;;;;;;;;;;;;;;;;4149190;28;19921;-57
2023/12/07 03:20:24;;;;;;;;;;;;;;;;;;4149224;28;19921;-57
2023/12/07 03:22:25;;;;;;;;;;;;;;;;;;4149369;28;19929;-57
2023/12/07 03:24:27;;;;;;;;;;;;;;;;;;4149236;28;19961;-57
2023/12/07 03:26:29;;;;;;;;;;;;;;;;;;4148966;28;19922;-57
2023/12/07 03:28:30;;;;;;;;;;;;;;;;;;4148866;28;20259;-58
2023/12/07 03:30:32;;;;;;;;;;;;;;;;;;4148831;28;20011;-57
2023/12/07 03:32:33;;;;;;;;;;;;;;;;;;4148867;28;20378;-57
2023/12/07 03:34:35;;;;;;;;;;;;;;;;;;4131566;28;19972;-57
2023/12/07 03:36:36;;;;;;;;;;;;;;;;;;4148793;28;19925;-58
2023/12/07 03:38:38;;;;;;;;;;;;;;;;;;4148848;28;20286;-57
2023/12/07 03:40:39;;;;;;;;;;;;;;;;;;4149076;28;19921;-58
2023/12/07 03:42:41;;;;;;;;;;;;;;;;;;4148766;28;19972;-57
2023/12/07 03:44:51;;;;;;;;;;;;;;;;;;4149017;28;19922;-58
2023/12/07 03:46:53;;;;;;;;;;;;;;;;;;4148691;28;19921;-58
2023/12/07 03:48:54;;;;;;;;;;;;;;;;;;4148165;28;19921;-58
2023/12/07 03:50:56;;;;;;;;;;;;;;;;;;4148352;28;19932;-58
2023/12/07 03:52:58;;;;;;;;;;;;;;;;;;4148908;28;19928;-58
2023/12/07 03:54:59;;;;;;;;;;;;;;;;;;4165137;28;19921;-57
2023/12/07 03:57:01;;;;;;;;;;;;;;;;;;4164988;28;19924;-57
2023/12/07 03:59:02;;;;;;;;;;;;;;;;;;4147333;28;19967;-57
2023/12/07 04:01:04;;;;;;;;;;;;;;;;;;4164723;28;20609;-58
2023/12/07 04:03:05;;;;;;;;;;;;;;;;;;4164802;28;19921;-57
2023/12/07 04:05:07;;;;;;;;;;;;;;;;;;4150189;28;19976;-56
2023/12/07 04:07:09;;;;;;;;;;;;;;;;;;4148644;28;19921;-58
2023/12/07 04:09:10;;;;;;;;;;;;;;;;;;4158687;28;19929;-57
2023/12/07 04:11:12;;;;;;;;;;;;;;;;;;4165050;28;19924;-58
2023/12/07 04:13:13;;;;;;;;;;;;;;;;;;4164955;28;19975;-58
2023/12/07 04:15:15;;;;;;;;;;;;;;;;;;4155428;28;19921;-57
2023/12/07 04:17:18;;;;;;;;;;;;;;;;;;4148322;28;19925;-58
2023/12/07 04:19:20;;;;;;;;;;;;;;;;;;4148576;28;19925;-57
2023/12/07 04:21:21;;;;;;;;;;;;;;;;;;4148597;28;19921;-58
2023/12/07 04:23:23;;;;;;;;;;;;;;;;;;4148310;28;19925;-57
2023/12/07 04:25:24;;;;;;;;;;;;;;;;;;4148672;28;19925;-58
2023/12/07 04:27:26;;;;;;;;;;;;;;;;;;4148461;28;19926;-57
2023/12/07 04:29:27;;;;;;;;;;;;;;;;;;4148501;28;19929;-57
2023/12/07 04:31:29;;;;;;;;;;;;;;;;;;4148688;28;19972;-55
2023/12/07 04:33:30;;;;;;;;;;;;;;;;;;4148086;28;19922;-55
2023/12/07 04:35:32;;;;;;;;;;;;;;;;;;4148361;28;19925;-55
2023/12/07 04:37:33;;;;;;;;;;;;;;;;;;4148651;28;19921;-55
2023/12/07 04:39:35;;;;;;;;;;;;;;;;;;4148429;28;20380;-55
2023/12/07 04:41:36;;;;;;;;;;;;;;;;;;4148405;28;19925;-55
2023/12/07 04:43:38;;;;;;;;;;;;;;;;;;4148136;28;19921;-56
2023/12/07 04:45:39;;;;;;;;;;;;;;;;;;4148192;28;19925;-56
2023/12/07 04:47:41;;;;;;;;;;;;;;;;;;4148090;28;20332;-56
2023/12/07 04:49:43;;;;;;;;;;;;;;;;;;4148262;28;19964;-55
2023/12/07 04:51:46;;;;;;;;;;;;;;;;;;4148141;28;19925;-56
2023/12/07 04:53:48;;;;;;;;;;;;;;;;;;4155282;28;19925;-55
2023/12/07 04:55:50;;;;;;;;;;;;;;;;;;4164523;28;19925;-56
2023/12/07 04:57:52;;;;;;;;;;;;;;;;;;4164352;28;20396;-56
2023/12/07 04:59:53;;;;;;;;;;;;;;;;;;4164291;28;19967;-56
2023/12/07 05:01:55;;;;;;;;;;;;;;;;;;4161094;28;20325;-55
2023/12/07 05:03:56;;;;;;;;;;;;;;;;;;4156162;28;19925;-54
2023/12/07 05:05:58;;;;;;;;;;;;;;;;;;4167589;28;19928;-56
2023/12/07 05:07:59;;;;;;;;;;;;;;;;;;4167295;28;20330;-55
2023/12/07 05:10:02;;;;;;;;;;;;;;;;;;4167284;28;19967;-55
2023/12/07 05:12:04;;;;;;;;;;;;;;;;;;4153376;28;19925;-55
2023/12/07 05:14:05;;;;;;;;;;;;;;;;;;4150535;28;19925;-55
2023/12/07 05:16:08;;;;;;;;;;;;;;;;;;4150879;28;19925;-56
2023/12/07 05:18:09;;;;;;;;;;;;;;;;;;4151153;28;19922;-56
2023/12/07 05:20:12;;;;;;;;;;;;;;;;;;4150658;28;19936;-55
2023/12/07 05:22:13;;;;;;;;;;;;;;;;;;4151103;28;20022;-56
2023/12/07 05:24:15;;;;;;;;;;;;;;;;;;4150967;28;19972;-55
2023/12/07 05:26:16;;;;;;;;;;;;;;;;;;4150964;28;19929;-55
2023/12/07 05:28:18;;;;;;;;;;;;;;;;;;4150792;28;19929;-55
2023/12/07 05:30:20;;;;;;;;;;;;;;;;;;4150979;28;20399;-56
2023/12/07 05:32:21;;;;;;;;;;;;;;;;;;4150873;28;19921;-55
2023/12/07 05:34:23;;;;;;;;;;;;;;;;;;4150959;28;19921;-56
2023/12/07 05:36:26;;;;;;;;;;;;;;;;;;4138656;28;19928;-56
2023/12/07 05:38:27;;;;;;;;;;;;;;;;;;4133105;28;19984;-56
2023/12/07 05:40:29;;;;;;;;;;;;;;;;;;4147195;28;19922;-56
2023/12/07 05:42:30;;;;;;;;;;;;;;;;;;4150641;28;20445;-57
2023/12/07 05:44:32;;;;;;;;;;;;;;;;;;4150524;28;19921;-58
2023/12/07 05:46:33;;;;;;;;;;;;;;;;;;4150683;28;19971;-58
2023/12/07 05:48:35;;;;;;;;;;;;;;;;;;4150746;28;19967;-58
2023/12/07 05:50:39;;;;;;;;;;;;;;;;;;4150306;28;19925;-58
2023/12/07 05:52:41;;;;;;;;;;;;;;;;;;4150542;28;20366;-58
2023/12/07 05:54:43;;;;;;;;;;;;;;;;;;4164839;28;19921;-57
2023/12/07 05:56:44;;;;;;;;;;;;;;;;;;4167053;28;20019;-58
2023/12/07 05:58:46;;;;;;;;;;;;;;;;;;4155957;28;19921;-58
2023/12/07 06:00:48;;;;;;;;;;;;;;;;;;4150337;28;19929;-58
2023/12/07 06:02:49;;;;;;;;;;;;;;;;;;4150510;28;19931;-57
2023/12/07 06:04:51;;;;;;;;;;;;;;;;;;4149998;28;19931;-58
2023/12/07 06:06:53;;;;;;;;;;;;;;;;;;4150511;28;19925;-56
2023/12/07 06:08:54;;;;;;;;;;;;;;;;;;4152214;28;19964;-58
2023/12/07 06:10:56;;;;;;;;;;;;;;;;;;4150101;28;19929;-57
2023/12/07 06:12:58;;;;;;;;;;;;;;;;;;4149305;28;20377;-58
2023/12/07 06:14:59;;;;;;;;;;;;;;;;;;4150013;28;19968;-57
2023/12/07 06:17:01;;;;;;;;;;;;;;;;;;4152806;28;19929;-57
2023/12/07 06:19:03;;;;;;;;;;;;;;;;;;4155536;28;19921;-56
2023/12/07 06:21:06;;;;;;;;;;;;;;;;;;4145400;28;19963;-60
2023/12/07 06:23:12;;;;;;;;;;;;;;;;;;4132532;28;19934;-60
2023/12/07 06:25:14;;;;;;;;;;;;;;;;;;4149637;28;19925;-63
2023/12/07 06:27:16;;;;;;;;;;;;;;;;;;4148080;28;20019;-63
2023/12/07 06:29:18;;;;;;;;;;;;;;;;;;4149119;28;19980;-62
2023/12/07 06:31:21;;;;;;;;;;;;;;;;;;4149636;28;19925;-62
2023/12/07 06:33:23;;;;;;;;;;;;;;;;;;4149757;28;19967;-62
2023/12/07 06:35:24;;;;;;;;;;;;;;;;;;4149515;28;19921;-63
2023/12/07 06:37:26;;;;;;;;;;;;;;;;;;4149781;28;20274;-62
2023/12/07 06:39:28;;;;;;;;;;;;;;;;;;4149880;28;19936;-62
2023/12/07 06:41:30;;;;;;;;;;;;;;;;;;4149777;28;19992;-63
2023/12/07 06:43:31;;;;;;;;;;;;;;;;;;4149866;28;19921;-62
2023/12/07 06:45:33;;;;;;;;;;;;;;;;;;4149820;28;20282;-62
2023/12/07 06:47:35;;;;;;;;;;;;;;;;;;4149942;28;20016;-62
2023/12/07 06:49:37;;;;;;;;;;;;;;;;;;4149546;28;19921;-62
2023/12/07 06:51:47;;;;;;;;;;;;;;;;;;4149722;28;20128;-68
2023/12/07 06:53:49;;;;;;;;;;;;;;;;;;4155466;28;20015;-68
2023/12/07 06:55:50;;;;;;;;;;;;;;;;;;4149647;28;19921;-68
2023/12/07 06:57:52;;;;;;;;;;;;;;;;;;4149486;28;20008;-68
2023/12/07 06:59:53;;;;;;;;;;;;;;;;;;4149296;28;19922;-67
2023/12/07 07:01:55;;;;;;;;;;;;;;;;;;4132046;28;19952;-67
2023/12/07 07:03:56;;;;;;;;;;;;;;;;;;4154328;28;19956;-68
2023/12/07 07:05:59;;;;;;;;;;;;;;;;;;4135182;28;19929;-68
2023/12/07 07:08:01;;;;;;;;;;;;;;;;;;4150126;28;19972;-67
2023/12/07 07:10:02;;;;;;;;;;;;;;;;;;4165760;28;19951;-68
2023/12/07 07:12:05;;;;;;;;;;;;;;;;;;4165692;28;20388;-68
2023/12/07 07:14:06;;;;;;;;;;;;;;;;;;4165348;28;19921;-68
2023/12/07 07:16:08;;;;;;;;;;;;;;;;;;4165625;28;19995;-67
2023/12/07 07:18:10;;;;;;;;;;;;;;;;;;4165389;28;19927;-68
2023/12/07 07:20:11;;;;;;;;;;;;;;;;;;4165542;28;20039;-68
2023/12/07 07:22:13;;;;;;;;;;;;;;;;;;4165618;28;19925;-68
2023/12/07 07:24:14;;;;;;;;;;;;;;;;;;4164286;28;19921;-68
2023/12/07 07:26:17;;;;;;;;;;;;;;;;;;4165378;28;19925;-68
2023/12/07 07:28:20;;;;;;;;;;;;;;;;;;4165560;28;20023;-68
2023/12/07 07:30:22;;;;;;;;;;;;;;;;;;4165168;28;19928;-68
2023/12/07 07:32:23;;;;;;;;;;;;;;;;;;4157408;28;19968;-68
2023/12/07 07:34:25;;;;;;;;;;;;;;;;;;4149066;28;19921;-68
2023/12/07 07:36:26;;;;;;;;;;;;;;;;;;4148913;28;20345;-68
2023/12/07 07:38:28;;;;;;;;;;;;;;;;;;4131370;28;19964;-68
2023/12/07 07:40:29;;;;;;;;;;;;;;;;;;4148813;28;20369;-68
2023/12/07 07:42:31;;;;;;;;;;;;;;;;;;4149013;28;19932;-68
2023/12/07 07:44:33;;;;;;;;;;;;;;;;;;4148860;28;19921;-68
2023/12/07 07:46:34;;;;;;;;;;;;;;;;;;4131467;28;20398;-68
2023/12/07 07:48:37;;;;;;;;;;;;;;;;;;4148744;28;20008;-68
2023/12/07 07:50:38;;;;;;;;;;;;;;;;;;4148879;28;19929;-68
2023/12/07 07:52:40;;;;;;;;;;;;;;;;;;4148735;28;19921;-68
2023/12/07 07:54:42;;;;;;;;;;;;;;;;;;4163033;28;19927;-68
2023/12/07 07:56:43;;;;;;;;;;;;;;;;;;4165308;28;19921;-68
2023/12/07 07:58:45;;;;;;;;;;;;;;;;;;4164837;28;19921;-68
2023/12/07 08:00:48;;;;;;;;;;;;;;;;;;4151048;28;19929;-68
2023/12/07 08:02:50;;;;;;;;;;;;;;;;;;4148759;28;20357;-62
2023/12/07 08:04:51;;;;;;;;;;;;;;;;;;4148345;28;19922;-63
2023/12/07 08:06:53;;;;;;;;;;;;;;;;;;4148762;28;19921;-63
2023/12/07 08:08:54;;;;;;;;;;;;;;;;;;4156448;28;19921;-63
2023/12/07 08:10:56;;;;;;;;;;;;;;;;;;4164665;28;19921;-64
2023/12/07 08:12:57;;;;;;;;;;;;;;;;;;4164938;28;19928;-63
2023/12/07 08:14:59;;;;;;;;;;;;;;;;;;4164481;28;19925;-64
2023/12/07 08:17:00;;;;;;;;;;;;;;;;;;4164958;28;19920;-63
2023/12/07 08:19:02;;;;;;;;;;;;;;;;;;4164827;28;19921;-63
2023/12/07 08:21:03;;;;;;;;;;;;;;;;;;4164747;28;19948;-64
2023/12/07 08:23:05;;;;;;;;;;;;;;;;;;4164627;28;19921;-64
2023/12/07 08:25:07;;;;;;;;;;;;;;;;;;4147057;28;19953;-63
2023/12/07 08:27:11;;;;;;;;;;;;;;;;;;4164654;28;20016;-65
2023/12/07 08:29:13;;;;;;;;;;;;;;;;;;4151822;28;20389;-64
2023/12/07 08:31:14;;;;;;;;;;;;;;;;;;4148321;28;19921;-64
2023/12/07 08:33:16;;;;;;;;;;;;;;;;;;4148098;28;20302;-64
2023/12/07 08:35:17;;;;;;;;;;;;;;;;;;4148779;28;19932;-64
2023/12/07 08:37:19;;;;;;;;;;;;;;;;;;4151413;28;20404;-64
2023/12/07 08:39:21;;;;;;;;;;;;;;;;;;4151363;28;20591;-64
2023/12/07 08:41:23;;;;;;;;;;;;;;;;;;4151138;28;19922;-64
2023/12/07 08:43:24;;;;;;;;;;;;;;;;;;4150777;28;19929;-64
2023/12/07 08:45:26;;;;;;;;;;;;;;;;;;4133042;28;19925;-64
2023/12/07 08:47:30;;;;;;;;;;;;;;;;;;4151120;28;19925;-64
2023/12/07 08:49:31;;;;;;;;;;;;;;;;;;4151661;28;19971;-64
2023/12/07 08:51:33;;;;;;;;;;;;;;;;;;4151592;28;20477;-64
2023/12/07 08:53:35;;;;;;;;;;;;;;;;;;4156624;28;20376;-64
2023/12/07 08:55:37;;;;;;;;;;;;;;;;;;4165652;28;19921;-64
2023/12/07 08:57:39;;;;;;;;;;;;;;;;;;4151202;28;20436;-65
2023/12/07 08:59:40;;;;;;;;;;;;;;;;;;4151230;28;19964;-65
2023/12/07 09:01:42;;;;;;;;;;;;;;;;;;4151112;28;19921;-65
2023/12/07 09:03:44;;;;;;;;;;;;;;;;;;4151116;28;20377;-65
2023/12/07 09:05:45;;;;;;;;;;;;;;;;;;4151607;28;19968;-65
2023/12/07 09:07:47;;;;;;;;;;;;;;;;;;4151340;28;19922;-65
2023/12/07 09:09:49;;;;;;;;;;;;;;;;;;4166748;28;19972;-64
2023/12/07 09:11:50;;;;;;;;;;;;;;;;;;4167605;28;19921;-68
2023/12/07 09:13:52;;;;;;;;;;;;;;;;;;4167345;28;19921;-68
2023/12/07 09:15:53;;;;;;;;;;;;;;;;;;4167522;28;19980;-69
2023/12/07 09:17:55;;;;;;;;;;;;;;;;;;4167717;28;19921;-68
2023/12/07 09:19:57;;;;;;;;;;;;;;;;;;4167529;28;19975;-68
2023/12/07 09:21:58;;;;;;;;;;;;;;;;;;4167443;28;20372;-68
2023/12/07 09:24:00;;;;;;;;;;;;;;;;;;4166579;28;19921;-68
2023/12/07 09:26:03;;;;;;;;;;;;;;;;;;4151115;28;19925;-68
2023/12/07 09:28:05;;;;;;;;;;;;;;;;;;4151153;28;19921;-68
2023/12/07 09:30:07;;;;;;;;;;;;;;;;;;4150270;28;20400;-67
2023/12/07 09:32:08;;;;;;;;;;;;;;;;;;4151215;28;19926;-68
2023/12/07 09:34:10;;;;;;;;;;;;;;;;;;4150872;28;20332;-68
2023/12/07 09:36:13;;;;;;;;;;;;;;;;;;4151052;28;19932;-68
2023/12/07 09:38:15;;;;;;;;;;;;;;;;;;4150316;28;19947;-68
2023/12/07 09:40:19;;;;;;;;;;;;;;;;;;4150536;28;19928;-68
2023/12/07 09:42:22;;;;;;;;;;;;;;;;;;4150903;28;19921;-68
2023/12/07 09:44:29;;;;;;;;;;;;;;;;;;4150522;28;19926;-68
2023/12/07 09:46:30;;;;;;;;;;;;;;;;;;4150178;28;19921;-68
2023/12/07 09:48:32;;;;;;;;;;;;;;;;;;4150277;28;19922;-68
2023/12/07 09:50:33;;;;;;;;;;;;;;;;;;4150506;28;20410;-68
2023/12/07 09:52:35;;;;;;;;;;;;;;;;;;4150360;28;19921;-68
2023/12/07 09:54:37;;;;;;;;;;;;;;;;;;4152228;28;20338;-68
2023/12/07 09:56:38;;;;;;;;;;;;;;;;;;4150506;28;19921;-68
2023/12/07 09:58:42;;;;;;;;;;;;;;;;;;4150365;28;20465;-68
2023/12/07 10:00:43;;;;;;;;;;;;;;;;;;4150141;28;20409;-68
2023/12/07 10:02:46;;;;;;;;;;;;;;;;;;4150244;28;19967;-68
2023/12/07 10:04:48;;;;;;;;;;;;;;;;;;4150207;28;20449;-68
2023/12/07 10:06:50;;;;;;;;;;;;;;;;;;4150375;28;20011;-68
2023/12/07 10:08:52;;;;;;;;;;;;;;;;;;4158203;28;19929;-68
2023/12/07 10:10:54;;;;;;;;;;;;;;;;;;4166585;28;20328;-68
2023/12/07 10:12:55;;;;;;;;;;;;;;;;;;4166595;28;20328;-69
2023/12/07 10:14:58;;;;;;;;;;;;;;;;;;4166431;28;19968;-68
2023/12/07 10:16:59;;;;;;;;;;;;;;;;;;4166963;28;20293;-68
2023/12/07 10:19:01;;;;;;;;;;;;;;;;;;4166369;28;19925;-67
2023/12/07 10:21:02;;;;;;;;;;;;;;;;;;4159072;28;19929;-68
2023/12/07 10:23:04;;;;;;;;;;;;;;;;;;4149119;28;19926;-65
2023/12/07 10:25:05;;;;;;;;;;;;;;;;;;4150157;28;19921;-65
2023/12/07 10:27:08;;;;;;;;;;;;;;;;;;4149892;28;19921;-66
2023/12/07 10:29:10;;;;;;;;;;;;;;;;;;4149966;28;20385;-65
2023/12/07 10:31:24;;;;;;;;;;;;;;;;;;4150267;28;19922;-66
2023/12/07 10:33:29;;;;;;;;;;;;;;;;;;4149663;28;19921;-65
2023/12/07 10:35:33;;;;;;;;;;;;;;;;;;4149264;28;19921;-66
2023/12/07 10:37:35;;;;;;;;;;;;;;;;;;4149410;28;20457;-66
2023/12/07 10:39:37;;;;;;;;;;;;;;;;;;4148521;28;20024;-65
2023/12/07 10:41:39;;;;;;;;;;;;;;;;;;4132619;28;20693;-66
2023/12/07 10:43:42;;;;;;;;;;;;;;;;;;4147563;28;19925;-66
2023/12/07 10:45:44;;;;;;;;;;;;;;;;;;4148419;28;20649;-66
2023/12/07 10:47:46;;;;;;;;;;;;;;;;;;4148666;28;20370;-66
2023/12/07 10:49:48;;;;;;;;;;;;;;;;;;4148257;28;19928;-65
2023/12/07 10:51:51;;;;;;;;;;;;;;;;;;4149194;28;19922;-66
2023/12/07 10:53:54;;;;;;;;;;;;;;;;;;4151974;28;19921;-65
2023/12/07 10:55:56;;;;;;;;;;;;;;;;;;4149723;28;20305;-66
2023/12/07 10:57:59;;;;;;;;;;;;;;;;;;4148178;28;19925;-66
2023/12/07 11:00:01;;;;;;;;;;;;;;;;;;4149365;28;19925;-66
2023/12/07 11:02:03;;;;;;;;;;;;;;;;;;4148502;28;20024;-66
2023/12/07 11:04:05;;;;;;;;;;;;;;;;;;4148635;28;20415;-66
2023/12/07 11:06:07;;;;;;;;;;;;;;;;;;4148431;28;19928;-66
2023/12/07 11:08:11;;;;;;;;;;;;;;;;;;4149614;28;20041;-65
2023/12/07 11:10:14;;;;;;;;;;;;;;;;;;4149126;28;19921;-66
2023/12/07 11:12:15;;;;;;;;;;;;;;;;;;4143304;28;19921;-66
2023/12/07 11:14:18;;;;;;;;;;;;;;;;;;4146812;28;20316;-65
2023/12/07 11:16:21;;;;;;;;;;;;;;;;;;4148239;28;19961;-65
2023/12/07 11:18:23;;;;;;;;;;;;;;;;;;4148322;28;19921;-66
2023/12/07 11:20:24;;;;;;;;;;;;;;;;;;4147527;28;19921;-65
2023/12/07 11:22:27;;;;;;;;;;;;;;;;;;4130840;28;19984;-65
2023/12/07 11:24:30;;;;;;;;;;;;;;;;;;4148665;28;19968;-66
2023/12/07 11:26:32;;;;;;;;;;;;;;;;;;4147912;28;19925;-66
2023/12/07 11:28:33;;;;;;;;;;;;;;;;;;4148135;28;19921;-65
2023/12/07 11:30:37;;;;;;;;;;;;;;;;;;4148428;28;19921;-66
2023/12/07 11:32:41;;;;;;;;;;;;;;;;;;4130896;28;19925;-66
2023/12/07 11:34:44;;;;;;;;;;;;;;;;;;4148693;28;19961;-66
2023/12/07 11:36:46;;;;;;;;;;;;;;;;;;4148117;28;20011;-66
2023/12/07 11:38:47;;;;;;;;;;;;;;;;;;4147764;28;19929;-66
2023/12/07 11:40:49;;;;;;;;;;;;;;;;;;4148819;28;20431;-66
2023/12/07 11:42:51;;;;;;;;;;;;;;;;;;4149086;28;19932;-66
2023/12/07 11:44:53;;;;;;;;;;;;;;;;;;4148423;28;19953;-66
2023/12/07 11:46:55;;;;;;;;;;;;;;;;;;4129989;28;19929;-66
2023/12/07 11:48:58;;;;;;;;;;;;;;;;;;4148222;28;19926;-66
2023/12/07 11:51:00;;;;;;;;;;;;;;;;;;4148559;28;19941;-66
2023/12/07 11:53:01;;;;;;;;;;;;;;;;;;4149733;28;19975;-66
2023/12/07 11:55:06;;;;;;;;;;;;;;;;;;4148435;28;19928;-66
2023/12/07 11:57:07;;;;;;;;;;;;;;;;;;4147696;28;20370;-66
2023/12/07 11:59:14;;;;;;;;;;;;;;;;;;4148284;28;20008;-66
2023/12/07 12:01:22;;;;;;;;;;;;;;;;;;4148132;28;20429;-66
2023/12/07 12:03:26;;;;;;;;;;;;;;;;;;4154472;28;20885;-66
2023/12/07 12:05:29;;;;;;;;;;;;;;;;;;4158437;28;19928;-66
2023/12/07 12:07:33;;;;;;;;;;;;;;;;;;4146401;28;20011;-65
2023/12/07 12:09:35;;;;;;;;;;;;;;;;;;4150291;28;19921;-66
2023/12/07 12:11:37;;;;;;;;;;;;;;;;;;4146890;28;19928;-66
2023/12/07 12:13:38;;;;;;;;;;;;;;;;;;4148123;28;20028;-66
2023/12/07 12:15:42;;;;;;;;;;;;;;;;;;4152252;28;20008;-67
2023/12/07 12:17:45;;;;;;;;;;;;;;;;;;4150795;28;20377;-66
2023/12/07 12:19:50;;;;;;;;;;;;;;;;;;4149033;28;19973;-66
2023/12/07 12:21:53;;;;;;;;;;;;;;;;;;4151979;28;19921;-66
2023/12/07 12:23:55;;;;;;;;;;;;;;;;;;4150084;28;19968;-66
2023/12/07 12:25:58;;;;;;;;;;;;;;;;;;4151457;28;19929;-66
2023/12/07 12:28:00;;;;;;;;;;;;;;;;;;4133861;28;19925;-66
2023/12/07 12:30:04;;;;;;;;;;;;;;;;;;4142475;28;19932;-66
2023/12/07 12:32:06;;;;;;;;;;;;;;;;;;4144998;28;19925;-66
2023/12/07 12:34:11;;;;;;;;;;;;;;;;;;4131681;28;19922;-66
2023/12/07 12:36:18;;;;;;;;;;;;;;;;;;4131678;28;19957;-66
2023/12/07 12:38:21;;;;;;;;;;;;;;;;;;4131801;28;19921;-66
2023/12/07 12:40:31;;;;;;;;;;;;;;;;;;4141017;28;20733;-64
2023/12/07 12:42:33;;;;;;;;;;;;;;;;;;4148063;28;19925;-68
2023/12/07 12:44:35;;;;;;;;;;;;;;;;;;4148134;28;19925;-68
2023/12/07 12:46:38;;;;;;;;;;;;;;;;;;4148206;28;19951;-67
2023/12/07 12:48:40;;;;;;;;;;;;;;;;;;4147986;28;19921;-67
2023/12/07 12:50:42;;;;;;;;;;;;;;;;;;4148026;28;19921;-68
2023/12/07 12:52:43;;;;;;;;;;;;;;;;;;4148081;28;19944;-68
2023/12/07 12:54:45;;;;;;;;;;;;;;;;;;4163011;28;20015;-68
2023/12/07 12:56:48;;;;;;;;;;;;;;;;;;4164347;28;20357;-67
2023/12/07 12:58:52;;;;;;;;;;;;;;;;;;4164231;28;19931;-67
2023/12/07 13:00:58;;;;;;;;;;;;;;;;;;4160921;28;19948;-68
2023/12/07 13:03:01;;;;;;;;;;;;;;;;;;4147685;28;19922;-67
2023/12/07 13:05:04;;;;;;;;;;;;;;;;;;4162131;28;20293;-68
2023/12/07 13:07:05;;;;;;;;;;;;;;;;;;4164289;28;20412;-67
2023/12/07 13:09:09;;;;;;;;;;;;;;;;;;4161779;28;19979;-67
2023/12/07 13:11:13;;;;;;;;;;;;;;;;;;4147577;28;19921;-68
2023/12/07 13:13:16;;;;;;;;;;;;;;;;;;4147894;28;19929;-67
2023/12/07 13:15:20;;;;;;;;;;;;;;;;;;4149332;28;20008;-67
2023/12/07 13:17:24;;;;;;;;;;;;;;;;;;4147724;28;19921;-68
2023/12/07 13:19:28;;;;;;;;;;;;;;;;;;4147923;28;19925;-67
2023/12/07 13:21:30;;;;;;;;;;;;;;;;;;4153588;28;19920;-67
2023/12/07 13:23:31;;;;;;;;;;;;;;;;;;4158827;28;19975;-68
2023/12/07 13:25:33;;;;;;;;;;;;;;;;;;4151374;28;19975;-67
2023/12/07 13:27:36;;;;;;;;;;;;;;;;;;4150702;28;19921;-68
2023/12/07 13:29:37;;;;;;;;;;;;;;;;;;4132933;28;19921;-67
2023/12/07 13:31:39;;;;;;;;;;;;;;;;;;4150232;28;19925;-67
2023/12/07 13:33:42;;;;;;;;;;;;;;;;;;4150752;28;20369;-67
2023/12/07 13:35:54;;;;;;;;;;;;;;;;;;4149621;28;20015;-67
2023/12/07 13:37:58;;;;;;;;;;;;;;;;;;4152453;28;20391;-67
2023/12/07 13:40:03;;;;;;;;;;;;;;;;;;4150394;28;19926;-67
2023/12/07 13:42:05;;;;;;;;;;;;;;;;;;4132052;28;20437;-67
2023/12/07 13:44:08;;;;;;;;;;;;;;;;;;4148325;28;19929;-67
2023/12/07 13:46:16;;;;;;;;;;;;;;;;;;4148781;28;19928;-67
2023/12/07 13:48:17;;;;;;;;;;;;;;;;;;4152873;28;20300;-67
2023/12/07 13:50:19;;;;;;;;;;;;;;;;;;4147437;28;19929;-67
2023/12/07 13:52:21;;;;;;;;;;;;;;;;;;4139863;28;19921;-65
2023/12/07 13:54:22;;;;;;;;;;;;;;;;;;4148029;28;19925;-64